Time;durP1;ratioP1;P1;durP2;ratioP2;P2;SDS_P1;SDS_P2;PMS_P1;PMS_P2;Temp;Humidity;BMP_temperature;BMP_pressure;BME280_temperature;BME280_humidity;BME280_pressure;Samples;Min_cycle;Max_cycle;Signal;HPM_P1;HPM_P2
2020/12/27 00:02:10;;;;;;;10.93;7.65;;;;;;;4.47;60.79;101562.94;5033756;28;20095;-60
2020/12/27 00:04:38;;;;;;;13.18;8.35;;;;;;;4.48;60.88;101556.88;5034594;28;20053;-60
2020/12/27 00:07:09;;;;;;;13.00;7.93;;;;;;;4.47;60.92;101550.84;5034715;28;20068;-60
2020/12/27 00:09:37;;;;;;;10.45;7.53;;;;;;;4.46;60.74;101546.50;5034614;28;20053;-60
2020/12/27 00:12:03;;;;;;;10.80;7.45;;;;;;;4.45;61.02;101541.34;5034722;28;20069;-61
2020/12/27 00:14:30;;;;;;;10.98;7.00;;;;;;;4.45;61.09;101536.16;5034485;28;20053;-60
2020/12/27 00:17:04;;;;;;;11.00;7.15;;;;;;;4.45;61.07;101538.75;5034301;28;20053;-60
2020/12/27 00:19:30;;;;;;;10.55;7.28;;;;;;;4.44;60.97;101535.28;5034397;28;20045;-60
2020/12/27 00:21:56;;;;;;;8.85;6.07;;;;;;;4.43;60.90;101538.75;5034146;28;20490;-60
2020/12/27 00:24:23;;;;;;;9.77;6.68;;;;;;;4.43;61.09;101533.56;5034357;28;20433;-60
2020/12/27 00:26:50;;;;;;;8.82;6.25;;;;;;;4.42;61.16;101537.06;5034167;28;20509;-59
2020/12/27 00:29:17;;;;;;;9.50;6.20;;;;;;;4.40;61.10;101531.88;5034260;28;20421;-60
2020/12/27 00:31:44;;;;;;;9.75;6.38;;;;;;;4.39;61.13;101524.09;5034083;28;20056;-59
2020/12/27 00:34:10;;;;;;;10.48;6.68;;;;;;;4.38;61.10;101528.47;5033994;28;20045;-59
2020/12/27 00:36:36;;;;;;;9.35;6.35;;;;;;;4.37;61.01;101521.53;5034045;28;20128;-59
2020/12/27 00:39:06;;;;;;;10.40;7.18;;;;;;;4.36;60.78;101516.38;5034052;28;20049;-59
2020/12/27 00:41:33;;;;;;;9.82;6.72;;;;;;;4.35;60.79;101510.31;5034021;28;20052;-59
2020/12/27 00:44:01;;;;;;;8.20;5.55;;;;;;;4.33;60.84;101503.44;5033770;28;20056;-59
2020/12/27 00:46:27;;;;;;;8.35;5.97;;;;;;;4.33;60.92;101506.03;5033241;28;20124;-59
2020/12/27 00:48:53;;;;;;;6.82;4.82;;;;;;;4.32;61.06;101496.53;5033480;28;20055;-59
2020/12/27 00:51:21;;;;;;;8.68;5.80;;;;;;;4.33;60.95;101495.63;5033912;28;20041;-59
2020/12/27 00:53:47;;;;;;;8.40;6.18;;;;;;;4.32;60.95;101500.00;5033850;28;20045;-60
2020/12/27 00:56:13;;;;;;;8.10;5.70;;;;;;;4.30;60.73;101491.34;5033746;28;20509;-59
2020/12/27 00:58:40;;;;;;;7.80;5.53;;;;;;;4.31;60.68;101497.44;5033153;28;20050;-59
2020/12/27 01:01:07;;;;;;;7.90;5.65;;;;;;;4.28;60.50;101485.34;5033670;28;20079;-60
2020/12/27 01:03:35;;;;;;;9.57;5.68;;;;;;;4.27;60.53;101496.63;5033548;28;20132;-60
2020/12/27 01:06:02;;;;;;;10.02;5.30;;;;;;;4.24;60.45;101487.13;5033579;28;20054;-59
2020/12/27 01:08:29;;;;;;;8.25;5.30;;;;;;;4.21;60.40;101476.78;5032966;28;20049;-59
2020/12/27 01:10:55;;;;;;;7.47;4.85;;;;;;;4.19;60.24;101470.78;5033383;28;20511;-59
2020/12/27 01:13:21;;;;;;;6.43;5.03;;;;;;;4.18;60.30;101470.81;5033246;28;20053;-59
2020/12/27 01:15:47;;;;;;;7.43;4.85;;;;;;;4.18;60.45;101469.06;5033176;28;20057;-59
2020/12/27 01:18:15;;;;;;;7.40;5.32;;;;;;;4.17;60.45;101469.09;5033402;28;20041;-59
2020/12/27 01:20:41;;;;;;;5.63;4.25;;;;;;;4.18;60.53;101463.88;5033098;28;20095;-60
2020/12/27 01:23:08;;;;;;;15.07;6.80;;;;;;;4.18;60.38;101460.44;5033161;28;20068;-59
2020/12/27 01:25:34;;;;;;;5.95;5.03;;;;;;;4.18;60.65;101461.28;5033281;28;20107;-59
2020/12/27 01:28:00;;;;;;;8.02;5.18;;;;;;;4.18;60.26;101463.03;5033091;28;20042;-59
2020/12/27 01:30:26;;;;;;;7.60;4.53;;;;;;;4.17;60.15;101449.16;5033040;28;20053;-59
2020/12/27 01:32:52;;;;;;;7.47;5.03;;;;;;;4.17;60.56;101449.16;5032894;28;20049;-59
2020/12/27 01:35:30;;;;;;;6.60;4.45;;;;;;;4.16;60.31;101447.44;5032827;28;20470;-59
2020/12/27 01:37:56;;;;;;;6.55;4.47;;;;;;;4.15;60.59;101442.28;5032754;28;20049;-59
2020/12/27 01:40:22;;;;;;;6.85;4.50;;;;;;;4.12;60.50;101438.00;5032852;28;20072;-59
2020/12/27 01:42:58;;;;;;;6.43;4.65;;;;;;;4.09;60.42;101433.72;5032674;28;20490;-59
2020/12/27 01:45:24;;;;;;;;;;;;;;;4.04;60.15;101432.94;5033204;28;20045;-59
2020/12/27 01:47:51;;;;;;;8.32;5.15;;;;;;;4.03;60.05;101430.41;5032643;28;19932;-60
2020/12/27 01:50:18;;;;;;;7.75;4.93;;;;;;;4.01;60.06;101426.97;5032758;28;20049;-59
2020/12/27 01:52:45;;;;;;;6.18;4.57;;;;;;;3.98;60.04;101425.28;5032661;28;20045;-59
2020/12/27 01:55:12;;;;;;;6.20;4.47;;;;;;;3.96;59.95;101427.06;5032716;28;20555;-59
2020/12/27 01:57:57;;;;;;;7.55;4.88;;;;;;;3.92;59.76;101425.38;5032501;28;20107;-59
2020/12/27 02:00:23;;;;;;;6.55;4.43;;;;;;;3.91;59.76;101424.53;5032582;28;20083;-59
2020/12/27 02:02:49;;;;;;;7.85;4.43;;;;;;;3.90;59.74;101425.41;5032556;28;20115;-59
2020/12/27 02:05:15;;;;;;;7.07;4.40;;;;;;;3.89;59.82;101425.44;5032367;28;20503;-60
2020/12/27 02:07:43;;;;;;;7.32;4.68;;;;;;;3.89;60.06;101418.50;5032353;28;20520;-60
2020/12/27 02:10:10;;;;;;;6.53;4.38;;;;;;;3.90;60.29;101411.59;5032441;28;20107;-59
2020/12/27 02:12:37;;;;;;;5.50;4.38;;;;;;;3.90;59.97;101409.00;5032275;28;20056;-59
2020/12/27 02:15:03;;;;;;;6.78;4.43;;;;;;;3.91;60.22;101400.28;5032156;28;20049;-59
2020/12/27 02:17:29;;;;;;;5.43;4.07;;;;;;;3.88;60.65;101396.00;5032231;28;20045;-59
2020/12/27 02:19:56;;;;;;;8.50;4.82;;;;;;;3.89;60.72;101391.69;5031513;28;20049;-60
2020/12/27 02:22:22;;;;;;;5.32;4.15;;;;;;;3.88;60.53;101395.16;5032235;28;20052;-59
2020/12/27 02:24:49;;;;;;;5.35;3.90;;;;;;;3.88;60.54;101389.97;5032143;28;20410;-59
2020/12/27 02:27:15;;;;;;;5.88;4.70;;;;;;;3.88;60.77;101383.03;5032318;28;20461;-59
2020/12/27 02:29:41;;;;;;;6.47;4.13;;;;;;;3.88;60.72;101389.97;5032099;28;20498;-59
2020/12/27 02:32:07;;;;;;;5.38;3.80;;;;;;;3.87;60.73;101383.06;5032168;28;20055;-59
2020/12/27 02:34:33;;;;;;;6.70;3.90;;;;;;;3.85;60.45;101377.06;5032181;28;20049;-59
2020/12/27 02:36:59;;;;;;;6.43;4.15;;;;;;;3.81;60.44;101368.47;5032033;28;20053;-59
2020/12/27 02:39:25;;;;;;;6.03;4.07;;;;;;;3.80;60.44;101368.50;5032031;28;20041;-59
2020/12/27 02:41:52;;;;;;;7.40;4.10;;;;;;;3.77;60.42;101364.19;5031928;28;20079;-59
2020/12/27 02:44:18;;;;;;;6.25;4.00;;;;;;;3.78;60.43;101367.66;5032053;28;20053;-59
2020/12/27 02:46:45;;;;;;;5.22;3.88;;;;;;;3.77;60.52;101369.38;5031801;28;20049;-59
2020/12/27 02:49:12;;;;;;;5.88;4.10;;;;;;;3.75;60.70;101372.03;5031892;28;20053;-60
2020/12/27 02:51:38;;;;;;;5.32;3.88;;;;;;;3.76;60.73;101371.13;5031974;28;20543;-59
2020/12/27 02:54:04;;;;;;;4.95;3.67;;;;;;;3.75;60.83;101373.78;5031902;28;20049;-59
2020/12/27 02:56:30;;;;;;;6.05;3.65;;;;;;;3.74;60.89;101372.91;5031950;28;20041;-60
2020/12/27 02:59:02;;;;;;;6.97;4.38;;;;;;;3.74;60.78;101374.66;5031712;28;20058;-59
2020/12/27 03:01:28;;;;;;;6.20;3.92;;;;;;;3.70;60.82;101373.84;5031923;28;20050;-59
2020/12/27 03:03:54;;;;;;;7.03;4.43;;;;;;;3.70;60.78;101373.84;5031706;28;20099;-59
2020/12/27 03:06:27;;;;;;;6.78;4.22;;;;;;;3.65;60.41;101373.06;5031833;28;20053;-59
2020/12/27 03:08:56;;;;;;;7.82;4.35;;;;;;;3.61;60.33;101374.00;5031744;28;20049;-59
2020/12/27 03:11:23;;;;;;;6.07;4.57;;;;;;;3.59;60.22;101374.06;5031796;28;20041;-59
2020/12/27 03:13:50;;;;;;;7.00;3.95;;;;;;;3.58;60.15;101374.94;5031840;28;20052;-59
2020/12/27 03:16:17;;;;;;;4.95;3.75;;;;;;;3.57;60.30;101375.81;5031807;28;20053;-59
2020/12/27 03:18:43;;;;;;;5.65;4.10;;;;;;;3.57;60.72;101372.38;5031570;28;20513;-60
2020/12/27 03:21:10;;;;;;;4.63;4.05;;;;;;;3.56;60.58;101375.84;5031605;28;20444;-59
2020/12/27 03:23:36;;;;;;;4.93;3.83;;;;;;;3.55;60.54;101372.38;5031507;28;20048;-59
2020/12/27 03:26:02;;;;;;;4.20;3.80;;;;;;;3.55;60.30;101372.38;5031652;28;20065;-59
2020/12/27 03:28:28;;;;;;;6.65;4.25;;;;;;;3.54;60.09;101372.41;5031664;28;20057;-59
2020/12/27 03:30:55;;;;;;;5.68;3.92;;;;;;;3.52;60.26;101377.63;5032190;28;20049;-60
2020/12/27 03:33:21;;;;;;;5.55;3.90;;;;;;;3.50;60.15;101373.34;5035186;28;20512;-59
2020/12/27 03:35:47;;;;;;;6.28;4.07;;;;;;;3.49;60.18;101371.63;5035087;28;20391;-59
2020/12/27 03:38:14;;;;;;;5.22;3.90;;;;;;;3.49;60.40;101363.84;5035170;28;20493;-60
2020/12/27 03:40:40;;;;;;;5.45;4.00;;;;;;;3.48;60.52;101362.13;5035008;28;20049;-59
2020/12/27 03:43:06;;;;;;;5.47;4.13;;;;;;;3.47;60.60;101358.69;5035057;28;20493;-59
2020/12/27 03:45:33;;;;;;;8.60;4.15;;;;;;;3.46;60.50;101356.13;5035165;28;20053;-59
2020/12/27 03:47:59;;;;;;;5.88;4.47;;;;;;;3.43;60.48;101354.44;5034957;28;20103;-59
2020/12/27 03:50:25;;;;;;;5.90;4.32;;;;;;;3.43;60.72;101344.06;5035025;28;20046;-60
2020/12/27 03:52:51;;;;;;;5.95;4.15;;;;;;;3.45;60.85;101341.44;5034785;28;20045;-59
2020/12/27 03:55:17;;;;;;;5.90;4.07;;;;;;;3.46;60.98;101345.75;5034744;28;20049;-59
2020/12/27 03:57:43;;;;;;;5.97;3.85;;;;;;;3.48;60.90;101338.78;5034634;28;20042;-59
2020/12/27 04:00:09;;;;;;;6.15;4.03;;;;;;;3.48;61.16;101337.06;5034805;28;20053;-59
2020/12/27 04:02:35;;;;;;;5.18;3.80;;;;;;;3.50;60.97;101326.63;5031868;28;20118;-60
2020/12/27 04:05:02;;;;;;;5.63;4.22;;;;;;;3.52;60.98;101324.88;5031160;28;20490;-60
2020/12/27 04:07:32;;;;;;;6.28;3.97;;;;;;;3.52;61.01;101328.31;5031301;28;20045;-59
2020/12/27 04:10:13;;;;;;;5.75;3.55;;;;;;;3.53;61.16;101318.78;5031196;28;20053;-60
2020/12/27 04:12:39;;;;;;;5.40;3.60;;;;;;;3.53;60.81;101309.28;5031090;28;20498;-59
2020/12/27 04:15:06;;;;;;;4.80;3.47;;;;;;;3.54;60.80;101312.72;5031335;28;20376;-60
2020/12/27 04:17:32;;;;;;;4.57;3.90;;;;;;;3.53;60.76;101308.41;5031161;28;20084;-59
2020/12/27 04:19:58;;;;;;;5.07;3.78;;;;;;;3.53;60.92;101300.63;5031076;28;20551;-60
2020/12/27 04:22:24;;;;;;;5.32;3.67;;;;;;;3.51;60.74;101298.06;5030995;28;20042;-59
2020/12/27 04:24:51;;;;;;;6.15;4.07;;;;;;;3.48;60.83;101290.34;5030948;28;20053;-59
2020/12/27 04:27:17;;;;;;;5.60;3.40;;;;;;;3.46;60.67;101286.91;5031034;28;20478;-60
2020/12/27 04:29:43;;;;;;;5.80;3.65;;;;;;;3.42;60.47;101282.66;5030943;28;20045;-59
2020/12/27 04:32:09;;;;;;;4.68;3.58;;;;;;;3.39;60.48;101273.22;5030812;28;20111;-60
2020/12/27 04:34:35;;;;;;;4.40;3.20;;;;;;;3.35;60.41;101279.34;5030908;28;20046;-59
2020/12/27 04:37:15;;;;;;;5.30;3.75;;;;;;;3.34;60.58;101282.81;5031032;28;20046;-59
2020/12/27 04:39:41;;;;;;;4.75;3.75;;;;;;;3.33;60.57;101269.88;5030551;28;20580;-59
2020/12/27 04:42:10;;;;;;;4.93;3.45;;;;;;;3.32;60.67;101270.75;5030276;28;20052;-59
2020/12/27 04:44:38;;;;;;;5.43;3.40;;;;;;;3.32;60.89;101265.56;5030234;28;20054;-59
2020/12/27 04:47:04;;;;;;;5.82;3.72;;;;;;;3.32;60.91;101252.59;5030773;28;20053;-59
2020/12/27 04:49:31;;;;;;;5.68;4.22;;;;;;;3.31;61.00;101250.88;5030283;28;20045;-59
2020/12/27 04:52:01;;;;;;;5.88;3.97;;;;;;;3.31;60.78;101250.88;5030476;28;20049;-59
2020/12/27 04:54:28;;;;;;;4.90;3.70;;;;;;;3.30;60.91;101250.03;5030467;28;20042;-59
2020/12/27 04:56:57;;;;;;;4.53;3.13;;;;;;;3.28;60.73;101244.00;5030307;28;20049;-59
2020/12/27 04:59:23;;;;;;;3.83;3.20;;;;;;;3.24;60.42;101240.59;5030116;28;20053;-60
2020/12/27 05:01:50;;;;;;;4.57;3.33;;;;;;;3.22;60.60;101244.97;5030258;28;20045;-60
2020/12/27 05:04:25;;;;;;;6.93;4.35;;;;;;;3.22;60.78;101238.94;5030317;28;20486;-59
2020/12/27 05:06:55;;;;;;;4.75;3.65;;;;;;;3.22;60.83;101234.59;5030327;28;20058;-59
2020/12/27 05:09:25;;;;;;;4.93;3.80;;;;;;;3.24;60.98;101221.63;5030401;28;20136;-60
2020/12/27 05:11:53;;;;;;;6.18;3.50;;;;;;;3.26;61.13;101227.59;5030394;28;20123;-59
2020/12/27 05:14:26;;;;;;;4.65;3.35;;;;;;;3.26;60.97;101225.00;5030145;28;20053;-60
2020/12/27 05:16:53;;;;;;;4.70;3.50;;;;;;;3.27;60.93;101221.53;5030126;28;20413;-59
2020/12/27 05:19:20;;;;;;;6.28;3.60;;;;;;;3.27;61.02;101226.72;5029745;28;20053;-59
2020/12/27 05:21:47;;;;;;;4.63;3.72;;;;;;;3.25;61.08;101229.34;5030115;28;20107;-60
2020/12/27 05:24:14;;;;;;;4.65;3.42;;;;;;;3.23;60.67;101225.94;5029795;28;20540;-60
2020/12/27 05:26:41;;;;;;;3.97;3.20;;;;;;;3.19;60.30;101229.47;5029764;28;20103;-59
2020/12/27 05:29:11;;;;;;;4.75;3.30;;;;;;;3.15;60.34;101225.22;5029903;28;20045;-60
2020/12/27 05:31:39;;;;;;;8.02;3.40;;;;;;;3.14;60.24;101220.91;5029739;28;20049;-60
2020/12/27 05:34:08;;;;;;;4.80;3.40;;;;;;;3.11;60.15;101220.94;5029794;28;20049;-59
2020/12/27 05:36:35;;;;;;;5.18;3.95;;;;;;;3.08;60.21;101221.88;5029586;28;20049;-60
2020/12/27 05:39:01;;;;;;;5.80;3.70;;;;;;;3.07;60.24;101217.59;5029542;28;20520;-59
2020/12/27 05:41:30;;;;;;;5.68;3.72;;;;;;;3.05;60.12;101218.50;5029672;28;20050;-59
2020/12/27 05:44:05;;;;;;;6.38;3.80;;;;;;;3.03;60.31;101208.13;5029501;28;20567;-60
2020/12/27 05:46:31;;;;;;;4.53;3.50;;;;;;;3.03;60.37;101210.72;5029433;28;20045;-59
2020/12/27 05:48:58;;;;;;;5.63;3.45;;;;;;;3.03;60.32;101207.28;5029232;28;20045;-60
2020/12/27 05:51:26;;;;;;;5.05;3.55;;;;;;;3.02;60.38;101198.66;5029275;28;20421;-59
2020/12/27 05:53:53;;;;;;;4.50;3.30;;;;;;;2.99;60.48;101200.47;5029234;28;20057;-59
2020/12/27 05:56:26;;;;;;;4.60;3.30;;;;;;;2.96;60.26;101198.78;5029349;28;20061;-60
2020/12/27 05:58:54;;;;;;;4.25;3.42;;;;;;;2.93;60.00;101198.81;5029124;28;20083;-59
2020/12/27 06:01:22;;;;;;;4.30;3.78;;;;;;;2.92;59.98;101204.88;5029212;28;20045;-59
2020/12/27 06:03:57;;;;;;;4.93;3.90;;;;;;;2.92;60.10;101197.97;5029146;28;20053;-60
2020/12/27 06:06:48;;;;;;;5.47;3.45;;;;;;;2.90;60.12;101206.66;5029023;28;20095;-60
2020/12/27 06:09:50;;;;;;;6.40;3.58;;;;;;;2.90;59.96;101210.09;5029426;28;20124;-59
2020/12/27 06:12:19;;;;;;;7.35;3.63;;;;;;;2.88;60.15;101214.47;5029068;28;20061;-60
2020/12/27 06:15:04;;;;;;;5.47;3.63;;;;;;;2.86;59.82;101203.25;5028971;28;20045;-59
2020/12/27 06:17:47;;;;;;;4.82;3.40;;;;;;;2.85;59.89;101213.66;5028873;28;20045;-59
2020/12/27 06:20:17;;;;;;;5.50;3.30;;;;;;;2.85;60.13;101217.09;5029310;28;20041;-59
2020/12/27 06:22:48;;;;;;;6.35;3.63;;;;;;;2.84;60.38;101225.75;5029324;28;20045;-59
2020/12/27 06:25:15;;;;;;;6.50;3.75;;;;;;;2.83;60.32;101226.66;5029204;28;20069;-59
2020/12/27 06:27:42;;;;;;;4.60;3.40;;;;;;;2.81;59.93;101225.81;5028888;28;20496;-59
2020/12/27 06:30:20;;;;;;;6.32;3.47;;;;;;;2.79;59.92;101224.97;5028816;28;20053;-59
2020/12/27 06:32:53;;;;;;;7.65;3.33;;;;;;;2.80;59.90;101215.47;5029206;28;20069;-59
2020/12/27 06:35:29;;;;;;;4.65;3.90;;;;;;;2.80;59.69;101218.06;5028638;28;20054;-59
2020/12/27 06:37:56;;;;;;;5.63;4.32;;;;;;;2.76;59.56;101215.50;5028827;28;20049;-59
2020/12/27 06:40:22;;;;;;;6.63;3.92;;;;;;;2.75;59.54;101213.78;5028703;28;20041;-60
2020/12/27 06:42:48;;;;;;;4.95;3.65;;;;;;;2.72;59.41;101203.47;5028563;28;20053;-59
2020/12/27 06:45:30;;;;;;;4.05;3.30;;;;;;;2.69;59.31;101202.69;5028785;28;20047;-59
2020/12/27 06:47:58;;;;;;;5.80;4.20;;;;;;;2.65;59.07;101201.88;5028642;28;20045;-59
2020/12/27 06:50:25;;;;;;;5.45;4.00;;;;;;;2.61;58.98;101198.47;5028642;28;20486;-59
2020/12/27 06:52:52;;;;;;;5.20;3.35;;;;;;;2.59;59.23;101200.25;5028505;28;20046;-59
2020/12/27 06:55:35;;;;;;;5.00;3.80;;;;;;;2.57;59.03;101202.00;5028647;28;20053;-59
2020/12/27 06:58:13;;;;;;;6.57;4.13;;;;;;;2.56;59.09;101199.44;5028242;28;20508;-59
2020/12/27 07:00:40;;;;;;;5.05;3.63;;;;;;;2.57;59.05;101198.56;5028611;28;20061;-59
2020/12/27 07:03:16;;;;;;;5.68;4.03;;;;;;;2.55;59.17;101195.13;5028456;28;20042;-59
2020/12/27 07:05:43;;;;;;;7.47;4.03;;;;;;;2.54;59.31;101196.88;5028679;28;20045;-59
2020/12/27 07:08:13;;;;;;;6.43;4.78;;;;;;;2.53;59.14;101192.56;5031955;28;20049;-59
2020/12/27 07:10:44;;;;;;;10.10;4.70;;;;;;;2.51;59.19;101193.47;5032313;28;20068;-59
2020/12/27 07:13:13;;;;;;;7.78;4.40;;;;;;;2.51;59.33;101201.25;5032513;28;20045;-59
2020/12/27 07:15:54;;;;;;;11.35;6.18;;;;;;;2.55;59.32;101196.00;5032240;28;20057;-59
2020/12/27 07:18:28;;;;;;;7.18;4.60;;;;;;;2.60;59.49;101203.69;5032263;28;20057;-59
2020/12/27 07:20:56;;;;;;;5.13;4.43;;;;;;;2.61;59.57;101206.22;5032071;28;20076;-59
2020/12/27 07:23:26;;;;;;;8.98;5.20;;;;;;;2.61;59.54;101200.22;5032196;28;20050;-60
2020/12/27 07:25:58;;;;;;;8.50;6.20;;;;;;;2.59;59.51;101199.38;5032163;28;20045;-59
2020/12/27 07:28:25;;;;;;;9.15;6.00;;;;;;;2.58;59.68;101192.50;5032154;28;20851;-59
2020/12/27 07:31:16;;;;;;;9.07;5.88;;;;;;;2.61;59.81;101187.25;5031786;28;20509;-59
2020/12/27 07:33:45;;;;;;;8.80;5.72;;;;;;;2.64;59.94;101188.94;5032028;28;20055;-59
2020/12/27 07:36:11;;;;;;;9.38;6.45;;;;;;;2.65;59.96;101185.47;5031960;28;20484;-59
2020/12/27 07:39:00;;;;;;;10.35;5.93;;;;;;;2.67;60.25;101191.50;5032041;28;20057;-59
2020/12/27 07:41:43;;;;;;;8.25;5.22;;;;;;;2.74;60.15;101191.38;5032126;28;20125;-59
2020/12/27 07:44:11;;;;;;;12.43;6.13;;;;;;;2.82;60.26;101196.41;5031852;28;20049;-59
2020/12/27 07:46:38;;;;;;;10.73;7.10;;;;;;;2.90;60.23;101188.50;5031795;28;20136;-59
2020/12/27 07:49:08;;;;;;;8.88;5.53;;;;;;;2.96;59.73;101187.53;5031894;28;20056;-60
2020/12/27 07:51:34;;;;;;;8.52;5.57;;;;;;;2.98;59.72;101178.00;5031733;28;20048;-59
2020/12/27 07:54:02;;;;;;;9.27;6.47;;;;;;;2.99;59.85;101164.16;5031492;28;20057;-60
2020/12/27 07:56:30;;;;;;;10.63;6.80;;;;;;;3.02;59.70;101164.97;5031617;28;20081;-59
2020/12/27 07:59:03;;;;;;;10.32;7.45;;;;;;;3.05;59.75;101167.50;5031410;28;20072;-59
2020/12/27 08:01:33;;;;;;;11.82;7.05;;;;;;;3.08;59.77;101156.19;5031551;28;20041;-59
2020/12/27 08:04:06;;;;;;;11.55;7.40;;;;;;;3.12;59.81;101142.28;5031257;28;20387;-59
2020/12/27 08:06:35;;;;;;;10.73;7.28;;;;;;;3.15;59.77;101144.84;5031190;28;20042;-59
2020/12/27 08:09:06;;;;;;;10.13;6.45;;;;;;;3.21;60.04;101133.47;5031240;28;20048;-58
2020/12/27 08:11:35;;;;;;;8.90;5.88;;;;;;;3.27;60.06;101129.00;5031207;28;20049;-61
2020/12/27 08:14:09;;;;;;;9.95;6.47;;;;;;;3.39;60.17;101132.25;5031639;28;20053;-61
2020/12/27 08:16:40;;;;;;;12.02;7.35;;;;;;;3.52;60.07;101125.94;5031134;28;20046;-61
2020/12/27 08:19:10;;;;;;;11.52;7.93;;;;;;;3.65;59.80;101129.13;5030011;28;20064;-61
2020/12/27 08:21:39;;;;;;;10.73;6.75;;;;;;;3.83;59.80;101114.88;5031081;28;20045;-61
2020/12/27 08:24:17;;;;;;;9.27;6.05;;;;;;;4.05;59.52;101114.38;5030892;28;20053;-61
2020/12/27 08:26:46;;;;;;;8.73;5.70;;;;;;;4.26;59.35;101105.22;5031157;28;20049;-61
2020/12/27 08:29:23;;;;;;;8.48;6.35;;;;;;;4.50;58.85;101098.56;5031112;28;20568;-61
2020/12/27 08:31:54;;;;;;;10.88;7.45;;;;;;;4.75;58.49;101095.34;5030971;28;20056;-61
2020/12/27 08:34:24;;;;;;;12.32;7.57;;;;;;;4.98;58.08;101091.25;5031073;28;20045;-61
2020/12/27 08:36:53;;;;;;;11.73;6.13;;;;;;;5.18;57.90;101088.94;5030534;28;20057;-61
2020/12/27 08:39:46;;;;;;;8.98;6.55;;;;;;;5.43;57.23;101082.16;5030725;28;20072;-61
2020/12/27 08:42:33;;;;;;;7.57;5.80;;;;;;;5.65;57.17;101079.75;5030849;28;20049;-61
2020/12/27 08:45:20;;;;;;;13.70;7.68;;;;;;;5.85;56.68;101085.22;5030653;28;20049;-61
2020/12/27 08:48:06;;;;;;;;;;;;;;;6.00;56.17;101085.66;5031123;28;20053;-59
2020/12/27 08:50:36;;;;;;;11.05;6.70;;;;;;;6.19;55.96;101091.13;5030266;28;19921;-59
2020/12/27 08:53:06;;;;;;;9.90;6.60;;;;;;;6.32;55.89;101089.81;5030630;28;20049;-60
2020/12/27 08:55:33;;;;;;;9.73;6.88;;;;;;;6.46;55.62;101081.53;5030294;28;20512;-60
2020/12/27 08:58:17;;;;;;;9.80;6.55;;;;;;;6.62;55.24;101081.00;5030146;28;20058;-61
2020/12/27 09:00:47;;;;;;;10.35;7.70;;;;;;;6.77;54.97;101071.81;5030341;28;20048;-61
2020/12/27 09:03:14;;;;;;;42.05;20.80;;;;;;;6.92;54.78;101080.81;5030336;28;20410;-61
2020/12/27 09:05:40;;;;;;;31.52;14.20;;;;;;;7.03;54.42;101068.25;5030451;28;20061;-61
2020/12/27 09:08:33;;;;;;;37.30;16.85;;;;;;;7.18;54.46;101057.22;5030327;28;20049;-61
2020/12/27 09:11:02;;;;;;;34.85;14.85;;;;;;;7.32;54.10;101053.25;5029097;28;20046;-61
2020/12/27 09:13:35;;;;;;;19.15;11.43;;;;;;;7.44;54.07;101055.41;5030176;28;20050;-61
2020/12/27 09:16:02;;;;;;;15.00;8.93;;;;;;;7.58;53.81;101049.66;5030018;28;20053;-61
2020/12/27 09:18:30;;;;;;;10.38;7.40;;;;;;;7.70;53.51;101050.09;5029799;28;20132;-61
2020/12/27 09:21:07;;;;;;;10.48;7.93;;;;;;;7.84;53.29;101063.44;5029840;28;20053;-61
2020/12/27 09:23:34;;;;;;;11.02;7.80;;;;;;;7.94;53.16;101054.31;5029812;28;20052;-61
2020/12/27 09:26:08;;;;;;;9.93;7.55;;;;;;;8.07;52.62;101056.41;5029958;28;20053;-61
2020/12/27 09:28:37;;;;;;;10.00;7.65;;;;;;;8.20;52.34;101043.69;5029436;28;20049;-61
2020/12/27 09:31:08;;;;;;;10.82;6.60;;;;;;;8.30;51.75;101032.78;5029585;28;20041;-61
2020/12/27 09:33:37;;;;;;;11.25;6.43;;;;;;;8.43;51.31;101027.00;5029852;28;20053;-61
2020/12/27 09:36:07;;;;;;;12.30;7.90;;;;;;;8.54;50.68;101024.81;5029569;28;20053;-61
2020/12/27 09:38:36;;;;;;;7.53;6.25;;;;;;;8.65;50.38;101025.19;5029603;28;20097;-61
2020/12/27 09:41:05;;;;;;;11.73;7.03;;;;;;;8.73;50.06;101018.78;5029676;28;20053;-61
2020/12/27 09:43:31;;;;;;;51.83;28.75;;;;;;;8.79;49.20;101015.91;5029618;28;20052;-62
2020/12/27 09:45:57;;;;;;;77.75;45.15;;;;;;;8.85;48.83;100999.06;5029457;28;20512;-62
2020/12/27 09:48:31;;;;;;;80.03;48.28;;;;;;;8.90;48.65;101005.81;5029432;28;20049;-62
2020/12/27 09:50:57;;;;;;;86.25;49.72;;;;;;;8.97;48.48;101001.97;5029327;28;20635;-62
2020/12/27 09:53:23;;;;;;;38.25;22.20;;;;;;;9.06;48.50;100992.00;5029589;28;20053;-62
2020/12/27 09:55:49;;;;;;;24.13;15.35;;;;;;;9.13;48.31;100986.41;5029116;28;20049;-61
2020/12/27 09:58:15;;;;;;;20.77;13.10;;;;;;;9.21;48.14;100982.59;5028956;28;20061;-62
2020/12/27 10:00:41;;;;;;;31.08;19.75;;;;;;;9.30;48.08;100979.53;5029274;28;20132;-62
2020/12/27 10:03:08;;;;;;;13.05;7.93;;;;;;;9.35;48.05;100976.72;5028959;28;20060;-59
2020/12/27 10:05:34;;;;;;;98.80;62.30;;;;;;;9.40;47.64;100970.31;5029261;28;20065;-62
2020/12/27 10:08:00;;;;;;;23.25;14.35;;;;;;;9.45;47.46;100965.69;5028921;28;20520;-62
2020/12/27 10:10:26;;;;;;;74.20;46.38;;;;;;;9.45;46.57;100952.59;5029200;28;20056;-62
2020/12/27 10:12:52;;;;;;;15.82;12.35;;;;;;;9.31;45.57;100941.97;5029093;28;20164;-61
2020/12/27 10:15:18;;;;;;;9.05;6.60;;;;;;;9.19;45.53;100929.44;5028858;28;20050;-62
2020/12/27 10:17:44;;;;;;;36.03;24.25;;;;;;;9.09;45.37;100926.41;5028860;28;20056;-61
2020/12/27 10:20:11;;;;;;;15.05;12.80;;;;;;;9.10;45.30;100922.88;5029019;28;20050;-62
2020/12/27 10:22:37;;;;;;;9.52;7.93;;;;;;;9.15;44.92;100913.03;5028884;28;20409;-62
2020/12/27 10:25:05;;;;;;;69.47;43.17;;;;;;;9.27;44.68;100911.59;5029124;28;20046;-62
2020/12/27 10:27:32;;;;;;;27.48;19.95;;;;;;;9.32;43.95;100899.97;5028960;28;20076;-62
2020/12/27 10:30:00;;;;;;;15.75;11.23;;;;;;;9.36;44.01;100894.56;5028718;28;20410;-62
2020/12/27 10:32:26;;;;;;;12.23;8.88;;;;;;;9.39;43.72;100883.97;5028994;28;20049;-62
2020/12/27 10:34:52;;;;;;;30.15;21.63;;;;;;;9.44;43.81;100876.72;5028806;28;20142;-61
2020/12/27 10:37:18;;;;;;;15.88;11.55;;;;;;;9.54;43.62;100871.88;5028795;28;20556;-61
2020/12/27 10:39:44;;;;;;;9.10;7.07;;;;;;;9.59;42.83;100869.88;5029034;28;20078;-61
2020/12/27 10:42:10;;;;;;;9.25;8.35;;;;;;;9.56;42.38;100865.63;5031476;28;20042;-61
2020/12/27 10:44:36;;;;;;;8.68;4.70;;;;;;;9.56;42.43;100860.41;5032709;28;20045;-61
2020/12/27 10:47:03;;;;;;;8.48;6.80;;;;;;;9.61;42.17;100852.28;5032806;28;20057;-61
2020/12/27 10:49:29;;;;;;;6.43;5.10;;;;;;;9.62;42.11;100839.13;5032990;28;20135;-61
2020/12/27 10:51:56;;;;;;;6.80;5.70;;;;;;;9.63;42.12;100832.94;5032911;28;20131;-61
2020/12/27 10:54:22;;;;;;;5.80;4.47;;;;;;;9.57;42.17;100825.41;5032644;28;20041;-62
2020/12/27 10:56:48;;;;;;;17.20;12.68;;;;;;;9.52;41.89;100814.28;5032574;28;20049;-62
2020/12/27 10:59:15;;;;;;;14.82;11.57;;;;;;;9.46;42.04;100805.00;5032658;28;20429;-63
2020/12/27 11:01:45;;;;;;;9.10;7.28;;;;;;;9.37;42.08;100804.59;5032537;28;20045;-61
2020/12/27 11:04:12;;;;;;;8.35;6.38;;;;;;;9.21;41.76;100794.91;5032783;28;20041;-62
2020/12/27 11:06:38;;;;;;;6.80;5.32;;;;;;;9.07;41.53;100792.16;5032646;28;20087;-61
2020/12/27 11:09:05;;;;;;;6.28;4.60;;;;;;;8.95;41.51;100791.81;5032558;28;20849;-62
2020/12/27 11:11:33;;;;;;;8.02;6.00;;;;;;;8.81;41.72;100781.16;5032272;28;20042;-62
2020/12/27 11:14:00;;;;;;;6.15;4.45;;;;;;;8.62;41.49;100770.75;5032143;28;20060;-61
2020/12/27 11:16:26;;;;;;;5.70;3.53;;;;;;;8.34;41.47;100766.78;5032290;28;20057;-62
2020/12/27 11:18:52;;;;;;;7.40;5.10;;;;;;;8.13;42.08;100766.88;5033482;28;20061;-60
2020/12/27 11:21:18;;;;;;;15.05;9.75;;;;;;;7.98;42.87;100759.75;5032183;28;20049;-61
2020/12/27 11:23:45;;;;;;;26.63;16.48;;;;;;;7.85;43.34;100752.44;5032021;28;20042;-62
2020/12/27 11:26:17;;;;;;;24.23;17.10;;;;;;;7.72;43.08;100747.84;5032137;28;20045;-62
2020/12/27 11:28:43;;;;;;;14.48;10.68;;;;;;;7.57;43.17;100751.97;5031890;28;20508;-61
2020/12/27 11:31:10;;;;;;;13.25;8.85;;;;;;;7.50;43.47;100735.75;5032287;28;20532;-62
2020/12/27 11:33:37;;;;;;;6.65;3.80;;;;;;;7.44;43.56;100731.66;5031676;28;20045;-61
2020/12/27 11:36:03;;;;;;;8.25;5.13;;;;;;;7.36;43.86;100715.47;5031886;28;20401;-61
2020/12/27 11:38:30;;;;;;;6.00;4.60;;;;;;;7.31;43.73;100715.69;5032054;28;20056;-61
2020/12/27 11:40:56;;;;;;;4.07;3.13;;;;;;;7.25;44.03;100709.84;5031525;28;20422;-62